Time,TemperatureF,DewpointF,PressureIn,WindDirection,WindDirectionDegrees,WindSpeedMPH,WindSpeedGustMPH,Humidity,HourlyPrecipIn,Conditions,Clouds,dailyrainin,SoftwareType,DateUTC
2013-03-01 00:02:00,9.0,6.0,30.34,NNW,342,0.0,1.0,89,0.00,,,0.00,,2013-03-01 06:02:00,
2013-03-01 00:11:00,9.0,6.0,30.34,NNW,342,0.0,1.0,89,0.00,,,0.00,,2013-03-01 06:11:00,
2013-03-01 00:22:00,9.0,7.0,30.34,NW,321,1.0,3.0,92,0.00,,,0.00,,2013-03-01 06:22:00,
2013-03-01 00:32:00,10.0,8.0,30.34,NW,308,0.0,2.0,91,0.00,,,0.00,,2013-03-01 06:32:00,
2013-03-01 00:42:00,10.0,8.0,30.34,NW,308,0.0,2.0,91,0.00,,,0.00,,2013-03-01 06:42:00,
2013-03-01 00:52:00,9.0,7.0,30.35,NW,316,0.0,2.0,90,0.00,,,0.00,,2013-03-01 06:52:00,
2013-03-01 01:01:00,9.0,7.0,30.35,WNW,300,0.0,3.0,90,0.00,,,0.00,,2013-03-01 07:01:00,
2013-03-01 01:11:00,9.0,7.0,30.35,WNW,300,0.0,3.0,90,0.00,,,0.00,,2013-03-01 07:11:00,
2013-03-01 01:22:00,10.0,8.0,30.35,NNW,328,0.0,3.0,91,0.00,,,0.00,,2013-03-01 07:22:00,
2013-03-01 01:32:00,10.0,8.0,30.35,NNE,13,2.0,4.0,90,0.00,,,0.00,,2013-03-01 07:32:00,
2013-03-01 01:42:00,10.0,8.0,30.35,NNE,13,2.0,4.0,90,0.00,,,0.00,,2013-03-01 07:42:00,
2013-03-01 01:52:00,10.0,8.0,30.35,North,349,2.0,4.0,90,0.00,,,0.00,,2013-03-01 07:52:00,
2013-03-01 02:02:00,10.0,8.0,30.35,North,349,2.0,4.0,90,0.00,,,0.00,,2013-03-01 08:02:00,
2013-03-01 02:11:00,10.0,8.0,30.35,North,349,2.0,4.0,90,0.00,,,0.00,,2013-03-01 08:11:00,
2013-03-01 02:22:00,10.0,8.0,30.35,North,5,2.0,4.0,90,0.00,,,0.00,,2013-03-01 08:22:00,
2013-03-01 02:32:00,11.0,8.0,30.35,North,11,3.0,5.0,89,0.00,,,0.00,,2013-03-01 08:32:00,
2013-03-01 02:43:00,11.0,8.0,30.35,North,11,3.0,5.0,89,0.00,,,0.00,,2013-03-01 08:43:00,
2013-03-01 02:53:00,11.0,8.0,30.36,North,351,2.0,5.0,89,0.00,,,0.00,,2013-03-01 08:53:00,
2013-03-01 03:02:00,11.0,8.0,30.36,WNW,301,0.0,4.0,89,0.00,,,0.00,,2013-03-01 09:02:00,
2013-03-01 03:12:00,11.0,8.0,30.36,WNW,301,0.0,4.0,89,0.00,,,0.00,,2013-03-01 09:12:00,
2013-03-01 03:22:00,11.0,8.0,30.36,NW,304,1.0,3.0,89,0.00,,,0.00,,2013-03-01 09:22:00,
2013-03-01 03:32:00,11.0,8.0,30.36,NNW,330,1.0,5.0,89,0.00,,,0.00,,2013-03-01 09:32:00,
2013-03-01 03:42:00,11.0,8.0,30.36,NNW,330,1.0,5.0,89,0.00,,,0.00,,2013-03-01 09:42:00,
2013-03-01 03:52:00,11.0,8.0,30.37,NW,316,5.0,7.0,89,0.00,,,0.00,,2013-03-01 09:52:00,
2013-03-01 04:02:00,12.0,9.0,30.37,NNW,347,1.0,7.0,89,0.00,,,0.00,,2013-03-01 10:02:00,
2013-03-01 04:11:00,12.0,9.0,30.37,NNW,347,1.0,7.0,89,0.00,,,0.00,,2013-03-01 10:11:00,
2013-03-01 04:22:00,12.0,9.0,30.36,NNE,13,3.0,6.0,89,0.00,,,0.00,,2013-03-01 10:22:00,
2013-03-01 04:32:00,11.0,8.0,30.36,North,359,2.0,4.0,88,0.00,,,0.00,,2013-03-01 10:32:00,
2013-03-01 04:42:00,11.0,8.0,30.36,North,359,2.0,4.0,88,0.00,,,0.00,,2013-03-01 10:42:00,
2013-03-01 04:53:00,11.0,8.0,30.37,NW,319,2.0,5.0,88,0.00,,,0.00,,2013-03-01 10:53:00,
2013-03-01 05:01:00,11.0,8.0,30.37,North,354,2.0,4.0,88,0.00,,,0.00,,2013-03-01 11:01:00,
2013-03-01 05:11:00,11.0,8.0,30.37,North,354,2.0,4.0,88,0.00,,,0.00,,2013-03-01 11:11:00,
2013-03-01 05:22:00,10.0,7.0,30.37,NNW,328,2.0,3.0,88,0.00,,,0.00,,2013-03-01 11:22:00,
2013-03-01 05:32:00,10.0,7.0,30.37,NNW,329,3.0,5.0,88,0.00,,,0.00,,2013-03-01 11:32:00,
2013-03-01 05:42:00,10.0,7.0,30.37,NNW,329,3.0,5.0,88,0.00,,,0.00,,2013-03-01 11:42:00,
2013-03-01 05:52:00,9.0,6.0,30.38,NW,308,2.0,5.0,88,0.00,,,0.00,,2013-03-01 11:52:00,
2013-03-01 06:01:00,8.0,5.0,30.39,NW,316,3.0,7.0,88,0.00,,,0.00,,2013-03-01 12:01:00,
2013-03-01 06:11:00,8.0,5.0,30.39,NW,316,3.0,7.0,88,0.00,,,0.00,,2013-03-01 12:11:00,
2013-03-01 06:21:00,7.0,4.0,30.39,NNW,336,1.0,4.0,89,0.00,,,0.00,,2013-03-01 12:21:00,
2013-03-01 06:32:00,7.0,4.0,30.39,NNW,335,1.0,4.0,89,0.00,,,0.00,,2013-03-01 12:32:00,
2013-03-01 06:42:00,7.0,4.0,30.39,NNW,335,1.0,4.0,89,0.00,,,0.00,,2013-03-01 12:42:00,
2013-03-01 06:52:00,6.0,3.0,30.39,NNW,331,0.0,2.0,89,0.00,,,0.00,,2013-03-01 12:52:00,
2013-03-01 07:01:00,6.0,3.0,30.40,NW,314,1.0,3.0,89,0.00,,,0.00,,2013-03-01 13:01:00,
2013-03-01 07:11:00,6.0,3.0,30.40,NW,314,1.0,3.0,89,0.00,,,0.00,,2013-03-01 13:11:00,
2013-03-01 07:21:00,5.0,2.0,30.40,NNW,335,2.0,6.0,89,0.00,,,0.00,,2013-03-01 13:21:00,
2013-03-01 07:32:00,5.0,2.0,30.40,North,349,3.0,5.0,89,0.00,,,0.00,,2013-03-01 13:32:00,
2013-03-01 07:42:00,5.0,2.0,30.40,North,349,3.0,5.0,89,0.00,,,0.00,,2013-03-01 13:42:00,
2013-03-01 07:52:00,4.0,1.0,30.40,NNW,327,1.0,3.0,88,0.00,,,0.00,,2013-03-01 13:52:00,
2013-03-01 08:01:00,4.0,2.0,30.41,NW,321,2.0,4.0,89,0.00,,,0.00,,2013-03-01 14:01:00,
2013-03-01 08:11:00,4.0,2.0,30.41,NW,321,2.0,4.0,89,0.00,,,0.00,,2013-03-01 14:11:00,
2013-03-01 08:21:00,6.0,3.0,30.41,NNW,343,2.0,6.0,88,0.00,,,0.00,,2013-03-01 14:21:00,
2013-03-01 08:32:00,7.0,4.0,30.42,NNW,328,3.0,5.0,87,0.00,,,0.00,,2013-03-01 14:32:00,
2013-03-01 08:41:00,7.0,4.0,30.42,NNW,328,3.0,5.0,87,0.00,,,0.00,,2013-03-01 14:41:00,
2013-03-01 08:52:00,7.0,4.0,30.42,NW,315,1.0,5.0,86,0.00,,,0.00,,2013-03-01 14:52:00,
2013-03-01 09:01:00,7.0,4.0,30.42,NW,319,3.0,6.0,86,0.00,,,0.00,,2013-03-01 15:01:00,
2013-03-01 09:11:00,8.0,5.0,30.43,NW,319,4.0,8.0,86,0.00,,,0.00,,2013-03-01 15:11:00,
2013-03-01 09:21:00,8.0,5.0,30.43,NW,319,4.0,8.0,86,0.00,,,0.00,,2013-03-01 15:21:00,
2013-03-01 09:31:00,8.0,5.0,30.43,NW,319,4.0,8.0,86,0.00,,,0.00,,2013-03-01 15:31:00,
2013-03-01 09:42:00,8.0,5.0,30.43,NW,319,4.0,8.0,86,0.00,,,0.00,,2013-03-01 15:42:00,
2013-03-01 09:52:00,10.0,6.0,30.43,NNE,20,4.0,6.0,84,0.00,,,0.00,,2013-03-01 15:52:00,
2013-03-01 10:01:00,11.0,7.0,30.44,NNW,344,4.0,7.0,83,0.00,,,0.00,,2013-03-01 16:01:00,
2013-03-01 10:11:00,11.0,7.0,30.44,NNW,344,4.0,7.0,83,0.00,,,0.00,,2013-03-01 16:11:00,
2013-03-01 10:21:00,12.0,8.0,30.44,NW,316,3.0,5.0,82,0.00,,,0.00,,2013-03-01 16:21:00,
2013-03-01 10:32:00,13.0,8.0,30.44,North,352,4.0,6.0,81,0.00,,,0.00,,2013-03-01 16:32:00,
2013-03-01 10:42:00,13.0,8.0,30.44,North,352,4.0,6.0,81,0.00,,,0.00,,2013-03-01 16:42:00,
2013-03-01 10:52:00,14.0,9.0,30.43,North,9,4.0,6.0,81,0.00,,,0.00,,2013-03-01 16:52:00,
2013-03-01 11:01:00,16.0,11.0,30.43,NE,49,2.0,5.0,80,0.00,,,0.00,,2013-03-01 17:01:00,
2013-03-01 11:11:00,16.0,11.0,30.43,NE,49,2.0,5.0,80,0.00,,,0.00,,2013-03-01 17:11:00,
2013-03-01 11:21:00,17.0,12.0,30.44,NW,325,2.0,5.0,79,0.00,,,0.00,,2013-03-01 17:21:00,
2013-03-01 11:32:00,19.0,13.0,30.44,NNE,32,3.0,6.0,78,0.00,,,0.00,,2013-03-01 17:32:00,
2013-03-01 11:41:00,19.0,13.0,30.44,NNE,32,3.0,6.0,78,0.00,,,0.00,,2013-03-01 17:41:00,
2013-03-01 11:52:00,19.0,13.0,30.43,North,351,2.0,5.0,78,0.00,,,0.00,,2013-03-01 17:52:00,
2013-03-01 12:01:00,20.0,14.0,30.43,NNW,338,2.0,5.0,77,0.00,,,0.00,,2013-03-01 18:01:00,
2013-03-01 12:12:00,20.0,14.0,30.43,NNW,338,2.0,5.0,77,0.00,,,0.00,,2013-03-01 18:12:00,
2013-03-01 12:22:00,21.0,14.0,30.43,North,8,2.0,5.0,75,0.00,,,0.00,,2013-03-01 18:22:00,
2013-03-01 12:31:00,21.0,14.0,30.43,North,8,2.0,5.0,75,0.00,,,0.00,,2013-03-01 18:31:00,
2013-03-01 12:42:00,21.0,14.0,30.43,North,8,2.0,5.0,75,0.00,,,0.00,,2013-03-01 18:42:00,
2013-03-01 12:52:00,22.0,14.0,30.43,NNW,343,1.0,3.0,72,0.00,,,0.00,,2013-03-01 18:52:00,
2013-03-01 13:01:00,22.0,14.0,30.43,NNW,342,2.0,5.0,72,0.00,,,0.00,,2013-03-01 19:01:00,
2013-03-01 13:11:00,22.0,14.0,30.43,NNW,342,2.0,5.0,72,0.00,,,0.00,,2013-03-01 19:11:00,
2013-03-01 13:21:00,23.0,15.0,30.42,North,11,1.0,3.0,71,0.00,,,0.00,,2013-03-01 19:21:00,
2013-03-01 13:31:00,23.0,15.0,30.42,NE,51,2.0,4.0,72,0.00,,,0.00,,2013-03-01 19:31:00,
2013-03-01 13:42:00,23.0,15.0,30.42,NE,51,2.0,4.0,72,0.00,,,0.00,,2013-03-01 19:42:00,
2013-03-01 13:52:00,23.0,16.0,30.41,North,9,3.0,6.0,73,0.00,,,0.00,,2013-03-01 19:52:00,
2013-03-01 14:01:00,23.0,16.0,30.40,ENE,68,2.0,4.0,73,0.00,,,0.00,,2013-03-01 20:01:00,
2013-03-01 14:11:00,23.0,16.0,30.40,ENE,68,2.0,4.0,73,0.00,,,0.00,,2013-03-01 20:11:00,
2013-03-01 14:21:00,23.0,16.0,30.40,ENE,63,1.0,5.0,73,0.00,,,0.00,,2013-03-01 20:21:00,
2013-03-01 14:31:00,24.0,16.0,30.40,NNE,23,2.0,5.0,72,0.00,,,0.00,,2013-03-01 20:31:00,
2013-03-01 14:41:00,24.0,16.0,30.40,NNE,23,2.0,5.0,72,0.00,,,0.00,,2013-03-01 20:41:00,
2013-03-01 14:52:00,25.0,16.0,30.39,ENE,69,3.0,4.0,69,0.00,,,0.00,,2013-03-01 20:52:00,
2013-03-01 15:01:00,25.0,17.0,30.39,NNW,338,2.0,4.0,70,0.00,,,0.00,,2013-03-01 21:01:00,
2013-03-01 15:11:00,25.0,17.0,30.39,NNW,338,2.0,4.0,70,0.00,,,0.00,,2013-03-01 21:11:00,
2013-03-01 15:21:00,25.0,17.0,30.40,North,349,2.0,4.0,70,0.00,,,0.00,,2013-03-01 21:21:00,
2013-03-01 15:31:00,25.0,17.0,30.40,NW,319,2.0,5.0,70,0.00,,,0.00,,2013-03-01 21:31:00,
2013-03-01 15:42:00,25.0,17.0,30.40,NW,319,2.0,5.0,70,0.00,,,0.00,,2013-03-01 21:42:00,
2013-03-01 15:52:00,25.0,17.0,30.41,North,350,2.0,4.0,71,0.00,,,0.00,,2013-03-01 21:52:00,
2013-03-01 16:01:00,25.0,17.0,30.41,NNE,16,3.0,5.0,71,0.00,,,0.00,,2013-03-01 22:01:00,
2013-03-01 16:11:00,25.0,17.0,30.41,NNE,16,3.0,5.0,71,0.00,,,0.00,,2013-03-01 22:11:00,
2013-03-01 16:21:00,25.0,17.0,30.41,NNW,342,3.0,4.0,71,0.00,,,0.00,,2013-03-01 22:21:00,
2013-03-01 16:31:00,25.0,17.0,30.41,NNE,20,1.0,4.0,71,0.00,,,0.00,,2013-03-01 22:31:00,
2013-03-01 16:42:00,25.0,17.0,30.41,NNE,20,1.0,4.0,71,0.00,,,0.00,,2013-03-01 22:42:00,
2013-03-01 16:52:00,24.0,16.0,30.42,North,349,0.0,4.0,71,0.00,,,0.00,,2013-03-01 22:52:00,
2013-03-01 17:01:00,24.0,16.0,30.41,ENE,74,1.0,3.0,71,0.00,,,0.00,,2013-03-01 23:01:00,
2013-03-01 17:11:00,24.0,16.0,30.41,ENE,74,1.0,3.0,71,0.00,,,0.00,,2013-03-01 23:11:00,
2013-03-01 17:21:00,24.0,16.0,30.41,ENE,63,0.0,3.0,72,0.00,,,0.00,,2013-03-01 23:21:00,
2013-03-01 17:31:00,23.0,16.0,30.41,NE,56,2.0,3.0,73,0.00,,,0.00,,2013-03-01 23:31:00,
2013-03-01 17:41:00,23.0,16.0,30.41,NE,56,2.0,3.0,73,0.00,,,0.00,,2013-03-01 23:41:00,
2013-03-01 17:52:00,22.0,16.0,30.40,NE,53,1.0,2.0,76,0.00,,,0.00,,2013-03-01 23:52:00,
2013-03-01 18:02:00,21.0,15.0,30.41,NNE,25,0.0,1.0,78,0.00,,,0.00,,2013-03-02 00:02:00,
2013-03-01 18:11:00,21.0,15.0,30.41,NNE,25,0.0,1.0,78,0.00,,,0.00,,2013-03-02 00:11:00,
2013-03-01 18:21:00,20.0,15.0,30.40,North,11,0.0,2.0,80,0.00,,,0.00,,2013-03-02 00:21:00,
2013-03-01 18:32:00,20.0,15.0,30.40,North,11,0.0,2.0,80,0.00,,,0.00,,2013-03-02 00:32:00,
2013-03-01 18:42:00,20.0,15.0,30.40,North,11,0.0,2.0,80,0.00,,,0.00,,2013-03-02 00:42:00,
2013-03-01 18:52:00,18.0,13.0,30.41,North,1,1.0,1.0,82,0.00,,,0.00,,2013-03-02 00:52:00,
2013-03-01 19:01:00,17.0,14.0,30.41,North,359,0.0,1.0,86,0.00,,,0.00,,2013-03-02 01:01:00,
2013-03-01 19:11:00,17.0,14.0,30.41,North,359,0.0,1.0,86,0.00,,,0.00,,2013-03-02 01:11:00,
2013-03-01 19:21:00,16.0,13.0,30.41,North,1,0.0,0.0,87,0.00,,,0.00,,2013-03-02 01:21:00,
2013-03-01 19:31:00,16.0,13.0,30.41,North,1,0.0,0.0,87,0.00,,,0.00,,2013-03-02 01:31:00,
2013-03-01 19:41:00,16.0,13.0,30.41,North,1,0.0,0.0,87,0.00,,,0.00,,2013-03-02 01:41:00,
2013-03-01 19:52:00,15.0,13.0,30.40,North,1,0.0,0.0,90,0.00,,,0.00,,2013-03-02 01:52:00,
2013-03-01 20:01:00,15.0,13.0,30.40,North,1,0.0,0.0,90,0.00,,,0.00,,2013-03-02 02:01:00,
2013-03-01 20:11:00,15.0,13.0,30.40,North,1,0.0,0.0,90,0.00,,,0.00,,2013-03-02 02:11:00,
2013-03-01 20:22:00,14.0,12.0,30.40,North,1,0.0,0.0,90,0.00,,,0.00,,2013-03-02 02:22:00,
2013-03-01 20:32:00,13.0,11.0,30.40,North,360,0.0,0.0,92,0.00,,,0.00,,2013-03-02 02:32:00,
2013-03-01 20:42:00,13.0,11.0,30.40,North,360,0.0,0.0,92,0.00,,,0.00,,2013-03-02 02:42:00,
2013-03-01 20:52:00,12.0,10.0,30.40,North,1,0.0,0.0,93,0.00,,,0.00,,2013-03-02 02:52:00,
2013-03-01 21:01:00,11.0,9.0,30.40,North,1,0.0,0.0,92,0.00,,,0.00,,2013-03-02 03:01:00,
2013-03-01 21:11:00,11.0,9.0,30.40,North,1,0.0,0.0,92,0.00,,,0.00,,2013-03-02 03:11:00,
2013-03-01 21:21:00,10.0,8.0,30.39,North,1,0.0,0.0,92,0.00,,,0.00,,2013-03-02 03:21:00,
2013-03-01 21:32:00,10.0,8.0,30.39,SW,229,0.0,0.0,93,0.00,,,0.00,,2013-03-02 03:32:00,
2013-03-01 21:42:00,10.0,8.0,30.39,SW,229,0.0,0.0,93,0.00,,,0.00,,2013-03-02 03:42:00,
2013-03-01 21:52:00,10.0,8.0,30.39,SW,232,0.0,0.0,93,0.00,,,0.00,,2013-03-02 03:52:00,
2013-03-01 22:01:00,10.0,8.0,30.38,SW,231,0.0,0.0,92,0.00,,,0.00,,2013-03-02 04:01:00,
2013-03-01 22:11:00,10.0,8.0,30.38,SW,231,0.0,0.0,92,0.00,,,0.00,,2013-03-02 04:11:00,
2013-03-01 22:21:00,9.0,7.0,30.37,SW,231,0.0,1.0,93,0.00,,,0.00,,2013-03-02 04:21:00,
2013-03-01 22:32:00,9.0,7.0,30.38,WSW,238,0.0,1.0,92,0.00,,,0.00,,2013-03-02 04:32:00,
2013-03-01 22:42:00,9.0,7.0,30.38,WSW,238,0.0,1.0,92,0.00,,,0.00,,2013-03-02 04:42:00,
2013-03-01 22:52:00,9.0,7.0,30.38,WSW,248,0.0,1.0,93,0.00,,,0.00,,2013-03-02 04:52:00,
2013-03-01 23:02:00,9.0,7.0,30.38,WSW,248,0.0,1.0,93,0.00,,,0.00,,2013-03-02 05:02:00,
2013-03-01 23:12:00,9.0,7.0,30.38,WSW,248,0.0,1.0,93,0.00,,,0.00,,2013-03-02 05:12:00,
2013-03-01 23:22:00,8.0,5.0,30.37,WNW,284,0.0,0.0,89,0.00,,,0.00,,2013-03-02 05:22:00,
2013-03-01 23:32:00,6.0,4.0,30.37,WNW,284,0.0,0.0,90,0.00,,,0.00,,2013-03-02 05:32:00,
2013-03-01 23:42:00,6.0,4.0,30.37,WNW,284,0.0,0.0,90,0.00,,,0.00,,2013-03-02 05:42:00,
2013-03-01 23:52:00,6.0,4.0,30.36,WNW,284,0.0,0.0,90,0.00,,,0.00,,2013-03-02 05:52:00,